Time;durP1;ratioP1;P1;durP2;ratioP2;P2;SDS_P1;SDS_P2;PMS_P1;PMS_P2;Temp;Humidity;BMP_temperature;BMP_pressure;BME280_temperature;BME280_humidity;BME280_pressure;Samples;Min_cycle;Max_cycle;Signal;HPM_P1;HPM_P2
2023/07/01 00:02:22;;;;;;;6.10;5.70;;;;;;;17.51;76.73;100206.78;6084594;23;20627;-68
2023/07/01 00:04:48;;;;;;;5.93;5.53;;;;;;;17.51;76.56;100212.09;6083361;23;20561;-68
2023/07/01 00:07:15;;;;;;;7.03;6.20;;;;;;;17.45;77.01;100199.38;6078944;23;20026;-68
2023/07/01 00:09:41;;;;;;;6.72;5.68;;;;;;;17.50;77.12;100196.31;6054953;23;20022;-69
2023/07/01 00:12:08;;;;;;;6.07;5.70;;;;;;;17.43;76.61;100180.09;6083612;23;20042;-68
2023/07/01 00:14:34;;;;;;;6.22;5.65;;;;;;;17.47;76.32;100183.34;6059930;23;20038;-67
2023/07/01 00:17:02;;;;;;;6.65;6.15;;;;;;;17.19;76.05;100131.91;6082075;23;20607;-68
2023/07/01 00:19:28;;;;;;;7.10;6.30;;;;;;;17.48;76.11;100175.25;6076446;23;20033;-68
2023/07/01 00:21:55;;;;;;;6.28;5.82;;;;;;;17.50;75.68;100193.66;6051242;23;20171;-67
2023/07/01 00:24:21;;;;;;;5.70;5.40;;;;;;;17.04;75.82;100105.78;6080133;23;20086;-68
2023/07/01 00:26:47;;;;;;;6.30;5.72;;;;;;;17.47;75.93;100172.72;6057136;23;20574;-67
2023/07/01 00:29:14;;;;;;;6.43;6.03;;;;;;;17.49;75.29;100174.25;6078845;23;20025;-67
2023/07/01 00:31:40;;;;;;;6.00;5.70;;;;;;;17.47;75.64;100176.19;6080506;23;20463;-68
2023/07/01 00:34:07;;;;;;;6.05;5.63;;;;;;;17.19;75.35;100124.78;6080811;23;20010;-68
2023/07/01 00:36:33;;;;;;;6.22;5.75;;;;;;;17.44;75.13;100160.56;6080272;23;20032;-68
2023/07/01 00:39:02;;;;;;;6.55;6.15;;;;;;;17.14;74.96;100111.13;6061769;23;20018;-67
2023/07/01 00:41:29;;;;;;;5.80;5.40;;;;;;;17.14;74.97;100111.94;6081369;23;20028;-67
2023/07/01 00:43:56;;;;;;;6.10;5.80;;;;;;;17.47;75.07;100154.16;6082620;23;20095;-67
2023/07/01 00:46:22;;;;;;;6.00;5.63;;;;;;;17.51;74.49;100150.25;6084658;23;20060;-67
2023/07/01 00:48:49;;;;;;;5.72;5.43;;;;;;;17.48;74.60;100146.06;6044046;23;20033;-67
2023/07/01 00:51:16;;;;;;;5.85;5.55;;;;;;;17.34;74.98;100135.84;6082652;23;20025;-68
2023/07/01 00:53:43;;;;;;;5.60;5.30;;;;;;;17.30;75.02;100116.72;6083882;23;20172;-68
2023/07/01 00:56:09;;;;;;;5.97;5.47;;;;;;;17.09;74.61;100082.34;6083347;23;20678;-67
2023/07/01 00:58:35;;;;;;;6.55;5.95;;;;;;;17.48;74.39;100135.44;6081092;23;20740;-68
2023/07/01 01:01:11;;;;;;;6.40;5.90;;;;;;;17.47;74.47;100132.94;6082774;23;20014;-68
2023/07/01 01:04:00;;;;;;;6.20;5.80;;;;;;;17.48;74.45;100127.50;6081847;23;20025;-67
2023/07/01 01:07:05;;;;;;;6.03;5.72;;;;;;;17.49;74.21;100125.66;6082568;23;20026;-68
2023/07/01 01:09:48;;;;;;;5.75;5.38;;;;;;;17.49;74.25;100117.72;6049827;23;20108;-68
2023/07/01 01:12:17;;;;;;;6.00;5.70;;;;;;;17.37;74.22;100100.25;6081596;23;20014;-67
2023/07/01 01:14:45;;;;;;;6.90;6.05;;;;;;;17.32;73.24;100066.19;6052446;23;20018;-68
2023/07/01 01:17:13;;;;;;;6.80;5.63;;;;;;;17.50;73.90;100100.78;6082605;23;20460;-68
2023/07/01 01:19:48;;;;;;;5.75;5.45;;;;;;;17.50;73.32;100111.41;6080533;23;20896;-68
2023/07/01 01:22:24;;;;;;;5.95;5.55;;;;;;;17.52;72.90;100099.69;6079155;23;20018;-66
2023/07/01 01:24:54;;;;;;;5.85;5.55;;;;;;;17.52;73.50;100105.00;6102101;23;20049;-67
2023/07/01 01:27:25;;;;;;;5.75;5.45;;;;;;;17.50;73.71;100104.31;6081823;23;20033;-67
2023/07/01 01:29:52;;;;;;;5.55;5.25;;;;;;;17.52;74.00;100107.66;6076667;23;20022;-67
2023/07/01 01:32:18;;;;;;;5.93;5.63;;;;;;;17.52;73.30;100096.22;6082607;23;20014;-68
2023/07/01 01:34:46;;;;;;;6.10;5.70;;;;;;;17.49;73.74;100094.66;6053473;23;20022;-66
2023/07/01 01:37:37;;;;;;;5.80;5.50;;;;;;;17.48;74.23;100103.63;6080576;23;20042;-66
2023/07/01 01:40:27;;;;;;;6.22;5.82;;;;;;;17.47;74.50;100104.56;6077032;23;20042;-67
2023/07/01 01:43:23;;;;;;;5.93;5.63;;;;;;;17.17;74.53;100051.66;6078094;23;20029;-67
2023/07/01 01:45:50;;;;;;;6.45;5.90;;;;;;;17.30;74.00;100068.97;6080291;23;20022;-68
2023/07/01 01:48:16;;;;;;;6.53;6.07;;;;;;;16.98;73.90;100005.63;6080705;23;20025;-68
2023/07/01 01:50:47;;;;;;;6.28;5.88;;;;;;;17.11;74.33;100047.75;6077013;23;20030;-68
2023/07/01 01:53:14;;;;;;;6.30;5.80;;;;;;;17.19;74.37;100055.00;6079686;23;21256;-68
2023/07/01 01:55:41;;;;;;;5.57;5.28;;;;;;;17.34;74.72;100081.00;6081075;23;20025;-67
2023/07/01 01:58:08;;;;;;;5.65;5.35;;;;;;;16.93;74.39;100016.59;6081035;23;20030;-67
2023/07/01 02:00:35;;;;;;;6.22;5.72;;;;;;;17.36;73.83;100078.19;6082395;23;20033;-68
2023/07/01 02:03:02;;;;;;;6.18;5.75;;;;;;;17.21;74.60;100067.16;6085609;23;20014;-68
2023/07/01 02:05:29;;;;;;;5.97;5.60;;;;;;;17.34;74.02;100069.53;6087077;23;20085;-68
2023/07/01 02:07:55;;;;;;;6.10;5.70;;;;;;;17.37;74.15;100068.41;6085424;23;20029;-68
2023/07/01 02:10:24;;;;;;;5.80;5.40;;;;;;;17.33;74.02;100057.25;6082632;23;20030;-68
2023/07/01 02:12:50;;;;;;;5.78;5.47;;;;;;;17.30;73.68;100065.50;6081108;23;20022;-67
2023/07/01 02:15:17;;;;;;;6.28;5.88;;;;;;;17.29;74.76;100071.75;6057615;23;20030;-68
2023/07/01 02:17:43;;;;;;;6.13;5.70;;;;;;;17.26;74.62;100082.63;6085725;23;20026;-68
2023/07/01 02:20:11;;;;;;;6.43;6.03;;;;;;;17.27;75.31;100073.72;6080776;23;20552;-68
2023/07/01 02:22:38;;;;;;;6.10;5.57;;;;;;;17.05;74.69;100038.53;6086640;23;20087;-69
2023/07/01 02:25:05;;;;;;;6.22;5.82;;;;;;;17.26;75.16;100080.84;6078209;23;20014;-69
2023/07/01 02:27:31;;;;;;;6.03;5.63;;;;;;;17.26;75.01;100061.41;6086503;23;20026;-67
2023/07/01 02:29:58;;;;;;;6.80;6.15;;;;;;;16.90;74.92;100016.06;6084607;23;20086;-68
2023/07/01 02:32:24;;;;;;;5.85;5.55;;;;;;;17.14;75.55;100058.09;6085126;23;20400;-67
2023/07/01 02:34:51;;;;;;;6.20;5.80;;;;;;;17.21;75.47;100061.84;6069454;23;20061;-68
2023/07/01 02:37:17;;;;;;;6.22;5.68;;;;;;;16.77;75.31;99988.94;6085865;23;20565;-68
2023/07/01 02:39:46;;;;;;;6.10;5.70;;;;;;;16.89;75.70;100022.34;6085021;23;20021;-67
2023/07/01 02:42:15;;;;;;;6.07;5.68;;;;;;;17.17;75.33;100062.28;6053010;23;20025;-67
2023/07/01 02:44:42;;;;;;;6.15;5.65;;;;;;;17.16;75.70;100058.78;6105353;23;20415;-67
2023/07/01 02:47:09;;;;;;;6.35;5.85;;;;;;;17.19;75.53;100065.63;6086989;23;20569;-67
2023/07/01 02:49:35;;;;;;;6.20;5.80;;;;;;;16.80;75.38;100000.13;6083843;23;20429;-68
2023/07/01 02:52:02;;;;;;;5.80;5.50;;;;;;;17.15;75.66;100068.53;6082412;23;20021;-67
2023/07/01 02:54:28;;;;;;;6.05;5.65;;;;;;;16.64;76.11;99987.41;6085355;23;20022;-68
2023/07/01 02:56:55;;;;;;;6.07;5.63;;;;;;;17.15;75.91;100057.94;6083215;23;20035;-68
2023/07/01 02:59:22;;;;;;;6.68;5.75;;;;;;;17.15;76.03;100063.22;6069456;23;20045;-67
2023/07/01 03:01:49;;;;;;;6.25;5.85;;;;;;;16.67;75.88;99987.09;6084598;23;20036;-67
2023/07/01 03:04:16;;;;;;;6.25;5.90;;;;;;;16.83;75.54;100007.81;6084941;23;20022;-68
2023/07/01 03:06:47;;;;;;;6.05;5.75;;;;;;;17.13;75.47;100057.22;6056549;23;20025;-68
2023/07/01 03:09:15;;;;;;;6.47;6.07;;;;;;;17.13;75.36;100051.94;6079405;23;20047;-67
2023/07/01 03:11:42;;;;;;;5.80;5.50;;;;;;;17.07;75.35;100041.03;6080948;23;20523;-67
2023/07/01 03:14:08;;;;;;;5.63;5.32;;;;;;;17.15;75.35;100054.44;6065462;23;20026;-67
2023/07/01 03:16:34;;;;;;;5.90;5.55;;;;;;;16.65;75.00;99967.03;6082072;23;20101;-67
2023/07/01 03:19:01;;;;;;;5.93;5.43;;;;;;;16.97;74.57;100000.44;6083767;23;20665;-67
2023/07/01 03:21:27;;;;;;;5.90;5.60;;;;;;;17.17;74.12;100023.31;6081124;23;20099;-68
2023/07/01 03:23:54;;;;;;;6.20;5.80;;;;;;;17.20;74.16;100024.84;6081340;23;20013;-68
2023/07/01 03:26:20;;;;;;;6.78;6.43;;;;;;;17.20;73.39;100011.59;6081208;23;20057;-67
2023/07/01 03:28:46;;;;;;;6.13;5.72;;;;;;;17.20;73.18;100012.47;6084733;23;20527;-68
2023/07/01 03:31:13;;;;;;;6.10;5.70;;;;;;;16.91;73.36;99964.72;6053065;23;20020;-68
2023/07/01 03:33:39;;;;;;;6.18;5.78;;;;;;;17.18;73.82;100022.38;6084996;23;20105;-68
2023/07/01 03:36:06;;;;;;;6.63;5.60;;;;;;;17.05;74.77;100011.19;6081835;23;20113;-68
2023/07/01 03:38:32;;;;;;;5.35;5.13;;;;;;;16.84;75.47;99990.09;6084339;23;20016;-68
2023/07/01 03:40:59;;;;;;;6.10;5.72;;;;;;;17.07;76.37;100038.41;6079944;23;20036;-68
2023/07/01 03:43:27;;;;;;;5.90;5.60;;;;;;;16.17;76.78;99899.75;6081639;23;20038;-67
2023/07/01 03:45:54;;;;;;;5.63;5.32;;;;;;;16.82;76.99;100003.50;6082767;23;20028;-69
2023/07/01 03:48:20;;;;;;;5.72;5.43;;;;;;;17.13;76.62;100043.13;6064383;23;20040;-71
2023/07/01 03:50:47;;;;;;;6.45;5.93;;;;;;;17.13;77.25;100053.75;6091177;23;20088;-68
2023/07/01 03:53:14;;;;;;;6.05;5.65;;;;;;;16.99;76.35;100025.81;6063869;23;20022;-67
2023/07/01 03:55:40;;;;;;;5.75;5.43;;;;;;;17.15;76.50;100042.03;6084487;23;20036;-67
2023/07/01 03:58:06;;;;;;;6.40;5.95;;;;;;;17.15;76.31;100034.06;6082629;23;20024;-67
2023/07/01 04:00:33;;;;;;;5.93;5.55;;;;;;;17.19;76.09;100047.06;6078953;23;20026;-68
2023/07/01 04:03:05;;;;;;;6.00;5.60;;;;;;;17.18;76.17;100027.66;6057648;23;20624;-67
2023/07/01 04:05:35;;;;;;;5.95;5.55;;;;;;;16.86;75.88;99973.09;6082256;23;20026;-68
2023/07/01 04:08:02;;;;;;;8.23;5.78;;;;;;;16.84;75.85;99967.09;6051337;23;20039;-68
2023/07/01 04:10:29;;;;;;;5.70;5.40;;;;;;;17.24;75.32;100020.94;6083049;23;20447;-68
2023/07/01 04:13:00;;;;;;;5.80;5.50;;;;;;;17.27;75.71;100018.03;6083068;23;20025;-68
2023/07/01 04:15:27;;;;;;;6.10;5.80;;;;;;;17.27;75.45;100026.81;6082154;23;20424;-68
2023/07/01 04:17:54;;;;;;;6.00;5.60;;;;;;;17.27;75.57;100025.97;6100404;23;20017;-68
2023/07/01 04:20:20;;;;;;;6.28;5.78;;;;;;;17.29;75.20;100021.38;6081578;23;20105;-70
2023/07/01 04:22:47;;;;;;;5.68;5.38;;;;;;;17.19;75.43;99997.50;6054963;23;20076;-68
2023/07/01 04:25:14;;;;;;;5.78;5.47;;;;;;;16.71;75.31;99919.63;6084249;23;20820;-68
2023/07/01 04:27:43;;;;;;;5.80;5.47;;;;;;;16.92;75.00;99946.03;6079914;23;20028;-69
2023/07/01 04:30:12;;;;;;;5.93;5.57;;;;;;;16.97;74.88;99936.81;6082267;23;20030;-68
2023/07/01 04:32:38;;;;;;;6.15;5.75;;;;;;;17.41;74.80;99990.25;6081513;23;20024;-67
2023/07/01 04:35:05;;;;;;;6.13;5.65;;;;;;;17.25;74.34;99954.50;6077777;23;20026;-68
2023/07/01 04:37:32;;;;;;;5.45;5.15;;;;;;;17.32;73.91;99954.81;6083126;23;20014;-67
2023/07/01 04:39:58;;;;;;;6.07;5.68;;;;;;;17.61;72.88;99980.44;6083518;23;20033;-69
2023/07/01 04:42:24;;;;;;;6.50;6.05;;;;;;;17.30;72.62;99907.22;6080281;23;20048;-69
2023/07/01 04:44:53;;;;;;;6.00;5.60;;;;;;;17.69;72.64;99961.97;6081285;23;20129;-67
2023/07/01 04:47:21;;;;;;;6.38;5.90;;;;;;;17.72;72.05;99959.03;6050734;23;20014;-67
2023/07/01 04:49:48;;;;;;;5.93;5.57;;;;;;;17.33;71.74;99891.00;6083767;23;20079;-67
2023/07/01 04:52:15;;;;;;;6.05;5.55;;;;;;;17.85;71.18;99956.09;6076384;23;20006;-67
2023/07/01 04:54:41;;;;;;;6.47;5.28;;;;;;;17.60;70.92;99888.53;6082826;23;20037;-66
2023/07/01 04:57:07;;;;;;;5.88;5.55;;;;;;;18.04;70.57;99941.88;6083257;23;20036;-67
2023/07/01 04:59:34;;;;;;;5.90;5.50;;;;;;;18.13;70.07;99939.19;6076083;23;20409;-67
2023/07/01 05:02:00;;;;;;;5.50;5.20;;;;;;;18.10;70.05;99909.44;6051653;23;20085;-67
2023/07/01 05:04:26;;;;;;;6.40;6.00;;;;;;;18.26;69.83;99916.75;6077824;23;20045;-66
2023/07/01 05:06:53;;;;;;;5.85;5.50;;;;;;;18.31;68.93;99917.97;6053971;23;20039;-68
2023/07/01 05:09:19;;;;;;;5.88;5.50;;;;;;;17.93;69.50;99853.50;6083115;23;20036;-69
2023/07/01 05:11:46;;;;;;;5.63;5.32;;;;;;;18.40;69.10;99896.81;6080337;23;20032;-67
2023/07/01 05:14:12;;;;;;;6.10;5.70;;;;;;;18.39;68.77;99906.63;6056853;23;20034;-67
2023/07/01 05:16:39;;;;;;;6.03;5.70;;;;;;;17.81;68.21;99779.50;6081128;23;20037;-67
2023/07/01 05:19:05;;;;;;;5.90;5.50;;;;;;;17.87;68.20;99798.34;6082673;23;20014;-67
2023/07/01 05:21:32;;;;;;;5.55;5.25;;;;;;;18.08;68.31;99834.41;6084218;23;20040;-68
2023/07/01 05:23:59;;;;;;;6.03;5.68;;;;;;;18.27;68.47;99868.81;6055181;23;20026;-68
2023/07/01 05:26:26;;;;;;;6.03;5.63;;;;;;;18.11;68.34;99858.00;6080281;23;20081;-67
2023/07/01 05:28:53;;;;;;;5.80;5.40;;;;;;;17.96;68.76;99840.91;6080818;23;20018;-68
2023/07/01 05:31:19;;;;;;;6.22;5.72;;;;;;;18.35;68.53;99878.69;6057212;23;20579;-67
2023/07/01 05:33:46;;;;;;;5.80;5.40;;;;;;;18.38;68.79;99883.72;6083295;23;20253;-67
2023/07/01 05:36:12;;;;;;;6.60;6.00;;;;;;;18.02;67.97;99804.00;6052023;23;20098;-68
2023/07/01 05:38:39;;;;;;;6.10;5.70;;;;;;;18.50;67.99;99873.66;6083662;23;20011;-68
2023/07/01 05:41:06;;;;;;;5.75;5.45;;;;;;;18.78;67.40;99877.06;6081276;23;20026;-67
2023/07/01 05:43:32;;;;;;;6.25;5.63;;;;;;;18.68;66.43;99817.84;6079223;23;20040;-67
2023/07/01 05:45:59;;;;;;;6.30;5.68;;;;;;;18.95;65.87;99821.44;6081487;23;20021;-67
2023/07/01 05:48:25;;;;;;;6.28;5.78;;;;;;;19.51;64.85;99842.19;6077063;23;20048;-66
2023/07/01 05:50:52;;;;;;;6.13;5.78;;;;;;;19.82;64.08;99848.84;5936778;23;20086;-67
2023/07/01 05:53:18;;;;;;;6.22;5.82;;;;;;;19.99;63.36;99836.44;6081826;23;20053;-66
2023/07/01 05:55:44;;;;;;;5.85;5.55;;;;;;;20.02;62.91;99830.75;6080848;23;20620;-67
2023/07/01 05:58:11;;;;;;;6.18;5.82;;;;;;;19.41;64.03;99777.63;6076166;23;20030;-68
2023/07/01 06:00:37;;;;;;;5.95;5.65;;;;;;;19.34;64.11;99784.56;6077359;23;20031;-68
2023/07/01 06:03:03;;;;;;;6.57;6.18;;;;;;;19.53;64.48;99832.22;6080256;23;20018;-68
2023/07/01 06:05:30;;;;;;;6.82;6.32;;;;;;;19.07;65.74;99805.03;6075813;23;20026;-67
2023/07/01 06:07:56;;;;;;;6.28;5.97;;;;;;;19.43;66.91;99900.69;6054813;23;20025;-68
2023/07/01 06:10:22;;;;;;;6.43;5.93;;;;;;;19.32;69.17;99941.72;6080712;23;20026;-68
2023/07/01 06:12:49;;;;;;;6.40;5.93;;;;;;;19.21;69.11;99919.84;6073269;23;20022;-68
2023/07/01 06:15:15;;;;;;;6.10;5.70;;;;;;;19.00;70.66;99958.22;6076137;23;20451;-68
2023/07/01 06:17:42;;;;;;;10.15;6.00;;;;;;;18.82;71.98;99952.06;6076280;23;20082;-67
2023/07/01 06:20:09;;;;;;;6.20;5.70;;;;;;;18.67;73.51;99973.84;6081437;23;20026;-68
2023/07/01 06:22:35;;;;;;;5.90;5.55;;;;;;;18.20;75.55;99952.75;6078955;23;20084;-68
2023/07/01 06:25:02;;;;;;;5.78;5.47;;;;;;;18.42;77.42;100003.78;6082450;23;20021;-68
2023/07/01 06:27:29;;;;;;;6.05;5.75;;;;;;;18.24;79.50;100009.03;6078734;23;20091;-68
2023/07/01 06:29:55;;;;;;;6.25;5.85;;;;;;;17.73;78.03;99912.94;6080670;23;20033;-67
2023/07/01 06:32:21;;;;;;;7.00;6.00;;;;;;;18.13;79.89;100018.84;6100714;23;20586;-67
2023/07/01 06:34:48;;;;;;;6.25;5.60;;;;;;;17.80;81.44;99991.00;6078972;23;20093;-66
2023/07/01 06:37:14;;;;;;;6.20;5.80;;;;;;;18.01;85.78;100056.38;6080423;23;20014;-67
2023/07/01 06:39:40;;;;;;;5.60;5.30;;;;;;;17.63;87.99;100026.25;6079576;23;20029;-67
2023/07/01 06:42:07;;;;;;;6.35;5.90;;;;;;;17.89;90.94;100080.41;6078482;23;20014;-67
2023/07/01 06:44:33;;;;;;;6.95;6.38;;;;;;;17.88;92.99;100083.19;6079828;23;20030;-67
2023/07/01 06:47:01;;;;;;;6.13;5.63;;;;;;;17.89;94.91;100084.88;6080440;23;20010;-70
2023/07/01 06:49:27;;;;;;;5.85;5.55;;;;;;;17.96;97.20;100079.84;6085672;23;20096;-66
2023/07/01 06:51:53;;;;;;;5.93;5.55;;;;;;;18.10;96.00;100074.94;6084359;23;20631;-66
2023/07/01 06:54:20;;;;;;;6.40;5.90;;;;;;;17.06;95.37;99888.25;6073939;23;20286;-71
2023/07/01 06:56:46;;;;;;;7.18;5.60;;;;;;;17.68;96.87;99984.16;6079882;23;20061;-67
2023/07/01 06:59:12;;;;;;;6.10;5.80;;;;;;;18.36;96.99;100073.44;6086086;23;20018;-66
2023/07/01 07:01:39;;;;;;;6.22;5.82;;;;;;;18.43;97.38;100063.91;6079440;23;20053;-67
2023/07/01 07:04:06;;;;;;;5.97;5.68;;;;;;;18.40;97.89;100067.72;6083936;23;20071;-68
2023/07/01 07:06:33;;;;;;;6.65;6.25;;;;;;;18.16;98.47;100017.72;6083017;23;20037;-67
2023/07/01 07:08:59;;;;;;;6.22;5.72;;;;;;;18.25;98.42;100014.19;6081820;23;20037;-67
2023/07/01 07:11:26;;;;;;;7.78;6.13;;;;;;;18.37;99.65;100011.38;6049894;23;20461;-67
2023/07/01 07:13:52;;;;;;;6.35;5.95;;;;;;;18.91;99.31;100068.16;6078217;23;20038;-66
2023/07/01 07:16:18;;;;;;;6.35;5.85;;;;;;;18.60;96.90;100001.16;6052395;23;20024;-67
2023/07/01 07:18:45;;;;;;;8.82;5.57;;;;;;;18.62;96.72;100029.28;6082412;23;20025;-66
2023/07/01 07:21:11;;;;;;;5.80;5.50;;;;;;;18.71;97.92;100064.75;6075083;23;20528;-67
2023/07/01 07:23:38;;;;;;;6.47;5.97;;;;;;;18.59;99.88;100065.94;6080169;23;20515;-67
2023/07/01 07:26:07;;;;;;;5.72;5.32;;;;;;;18.39;99.14;100028.00;6051854;23;20026;-67
2023/07/01 07:28:35;;;;;;;6.15;5.85;;;;;;;18.38;100.00;100058.19;6102051;23;20413;-67
2023/07/01 07:31:01;;;;;;;6.00;5.50;;;;;;;18.56;100.00;100074.19;6104552;23;20018;-66
2023/07/01 07:33:27;;;;;;;6.20;5.60;;;;;;;18.48;100.00;100064.28;6081688;23;20032;-67
2023/07/01 07:35:54;;;;;;;6.20;5.80;;;;;;;18.43;100.00;100072.72;6077924;23;20025;-66
2023/07/01 07:38:20;;;;;;;6.13;5.72;;;;;;;18.54;100.00;100069.88;6081435;23;20026;-67
2023/07/01 07:40:46;;;;;;;6.05;5.65;;;;;;;18.41;100.00;100068.53;6079483;23;20017;-69
2023/07/01 07:43:13;;;;;;;6.43;5.82;;;;;;;18.38;100.00;100074.13;6055104;23;20031;-67
2023/07/01 07:45:40;;;;;;;5.93;5.47;;;;;;;18.00;100.00;100014.84;6086812;23;20021;-68
2023/07/01 07:48:06;;;;;;;8.02;6.05;;;;;;;17.97;100.00;100007.19;6082096;23;20026;-67
2023/07/01 07:50:35;;;;;;;6.53;6.10;;;;;;;18.50;100.00;100083.59;6078075;23;20018;-67
2023/07/01 07:53:03;;;;;;;5.97;5.68;;;;;;;17.66;100.00;99922.44;6079074;23;20025;-68
2023/07/01 07:55:33;;;;;;;6.13;5.70;;;;;;;18.57;100.00;100075.88;6079755;23;20033;-67
2023/07/01 07:58:01;;;;;;;5.75;5.45;;;;;;;18.75;100.00;100090.06;6077994;23;20093;-69
2023/07/01 08:00:27;;;;;;;6.63;6.03;;;;;;;18.68;100.00;100052.59;6082123;23;20028;-67
2023/07/01 08:02:54;;;;;;;5.97;5.60;;;;;;;18.77;100.00;100066.00;6084153;23;20089;-67
2023/07/01 08:05:25;;;;;;;7.28;6.38;;;;;;;18.67;100.00;100066.88;6103665;23;20026;-67
2023/07/01 08:07:51;;;;;;;6.63;5.95;;;;;;;18.36;100.00;100023.78;6050298;23;20683;-68
2023/07/01 08:10:18;;;;;;;6.10;5.70;;;;;;;18.22;100.00;100011.84;6082032;23;20029;-67
2023/07/01 08:12:44;;;;;;;6.00;5.60;;;;;;;18.51;100.00;100077.28;6074581;23;20028;-67
2023/07/01 08:15:11;;;;;;;6.55;6.05;;;;;;;18.83;100.00;100073.41;6083057;23;20020;-69
2023/07/01 08:17:38;;;;;;;6.00;5.60;;;;;;;18.85;100.00;100082.88;6080531;23;20374;-67
2023/07/01 08:20:05;;;;;;;6.13;5.72;;;;;;;18.72;100.00;100051.31;6074861;23;20021;-66
2023/07/01 08:22:31;;;;;;;6.55;6.05;;;;;;;19.14;100.00;100071.22;6079662;23;20030;-67
2023/07/01 08:24:58;;;;;;;5.55;5.25;;;;;;;19.03;100.00;100016.44;6076962;23;20101;-67
2023/07/01 08:27:25;;;;;;;5.75;5.45;;;;;;;19.50;100.00;100066.75;6079073;23;20024;-67
2023/07/01 08:29:51;;;;;;;6.10;5.70;;;;;;;19.60;98.57;100049.84;6084460;23;20022;-67
2023/07/01 08:32:17;;;;;;;5.78;5.47;;;;;;;19.63;98.97;100053.03;6074757;23;20592;-68
2023/07/01 08:34:44;;;;;;;5.68;5.38;;;;;;;19.72;97.24;100052.16;6079051;23;20037;-67
2023/07/01 08:37:10;;;;;;;6.03;5.53;;;;;;;19.55;98.95;100052.16;6049537;23;20088;-68
2023/07/01 08:39:37;;;;;;;6.53;6.05;;;;;;;19.59;100.00;100070.31;6078413;23;20110;-67
2023/07/01 08:42:04;;;;;;;6.43;6.03;;;;;;;19.36;98.66;99999.94;6077554;23;20029;-67
2023/07/01 08:44:31;;;;;;;6.55;6.00;;;;;;;19.60;98.60;100015.25;6079562;23;20056;-65
2023/07/01 08:47:00;;;;;;;6.07;5.78;;;;;;;19.77;97.86;100046.34;6052553;23;20116;-66
2023/07/01 08:49:27;;;;;;;6.20;5.80;;;;;;;19.46;98.46;100011.31;6102670;23;20021;-67
2023/07/01 08:52:05;;;;;;;5.70;5.40;;;;;;;19.73;98.33;100053.81;6079909;23;20056;-67
2023/07/01 08:54:34;;;;;;;6.82;6.15;;;;;;;19.61;99.43;100062.19;6080433;23;20043;-67
2023/07/01 08:57:01;;;;;;;5.82;5.53;;;;;;;19.61;99.91;100052.34;6078466;23;20014;-67
2023/07/01 08:59:28;;;;;;;6.10;5.57;;;;;;;19.01;99.88;99953.75;6081626;23;20038;-67
2023/07/01 09:02:01;;;;;;;5.90;5.50;;;;;;;19.95;99.65;100069.44;6082308;23;20038;-67
2023/07/01 09:04:28;;;;;;;5.95;5.55;;;;;;;19.78;99.55;100064.00;6079581;23;20033;-68
2023/07/01 09:06:55;;;;;;;5.97;5.68;;;;;;;19.42;100.00;100049.88;6083138;23;20067;-66
2023/07/01 09:09:21;;;;;;;6.07;5.57;;;;;;;19.42;100.00;100095.94;6082037;23;20044;-67
2023/07/01 09:11:48;;;;;;;5.90;5.60;;;;;;;19.31;100.00;100088.19;6085490;23;20092;-66
2023/07/01 09:14:14;;;;;;;5.75;5.35;;;;;;;18.91;100.00;100065.50;6055974;23;20014;-66
2023/07/01 09:16:40;;;;;;;5.78;5.47;;;;;;;18.99;100.00;100094.84;6081505;23;20032;-67
2023/07/01 09:19:16;;;;;;;5.70;5.40;;;;;;;18.97;100.00;100091.50;6104737;23;20120;-67
2023/07/01 09:21:44;;;;;;;5.70;5.30;;;;;;;18.33;100.00;100019.63;6081623;23;20033;-67
2023/07/01 09:24:12;;;;;;;5.88;5.57;;;;;;;18.76;100.00;100094.38;6085469;23;20036;-67
2023/07/01 09:26:38;;;;;;;6.03;5.72;;;;;;;18.67;100.00;100092.63;6077717;23;20643;-67
2023/07/01 09:29:15;;;;;;;5.60;5.30;;;;;;;18.47;100.00;100089.22;6076791;23;20030;-67
2023/07/01 09:31:52;;;;;;;5.95;5.55;;;;;;;18.31;100.00;100063.25;6051146;23;20606;-66
2023/07/01 09:34:18;;;;;;;5.80;5.40;;;;;;;18.48;100.00;100101.50;6072936;23;20026;-67
2023/07/01 09:36:45;;;;;;;5.65;5.35;;;;;;;18.44;100.00;100100.97;6079218;23;20089;-67
2023/07/01 09:39:11;;;;;;;5.65;5.35;;;;;;;18.52;100.00;100102.88;6077919;23;20034;-67
2023/07/01 09:41:38;;;;;;;5.70;5.40;;;;;;;18.53;100.00;100102.72;6078082;23;20093;-67
2023/07/01 09:44:18;;;;;;;5.70;5.40;;;;;;;18.67;100.00;100100.59;6082912;23;20659;-67
2023/07/01 09:46:46;;;;;;;5.68;5.38;;;;;;;18.65;100.00;100099.91;6080688;23;20037;-66
2023/07/01 09:49:13;;;;;;;5.88;5.57;;;;;;;18.86;100.00;100105.84;6078331;23;20029;-66
2023/07/01 09:51:50;;;;;;;5.55;5.25;;;;;;;18.70;100.00;100095.81;6079079;23;20010;-67
2023/07/01 09:54:30;;;;;;;5.75;5.45;;;;;;;18.66;100.00;100110.38;6077576;23;20034;-67
2023/07/01 09:56:58;;;;;;;5.45;5.15;;;;;;;18.71;100.00;100104.63;6077747;23;20036;-66
2023/07/01 09:59:26;;;;;;;5.70;5.40;;;;;;;18.91;100.00;100105.38;6081543;23;20056;-67
2023/07/01 10:01:55;;;;;;;5.30;5.10;;;;;;;19.08;100.00;100096.63;6051691;23;20037;-67
2023/07/01 10:04:25;;;;;;;5.40;5.10;;;;;;;19.08;100.00;100088.63;6077393;23;20429;-68
2023/07/01 10:06:53;;;;;;;5.40;5.10;;;;;;;19.07;100.00;100055.03;6080754;23;20029;-68
2023/07/01 10:09:23;;;;;;;5.35;4.95;;;;;;;19.43;100.00;100081.66;6079384;23;20095;-68
2023/07/01 10:11:54;;;;;;;5.60;5.30;;;;;;;19.36;100.00;100022.03;6053659;23;20061;-69
2023/07/01 10:14:23;;;;;;;5.35;5.07;;;;;;;19.78;100.00;100063.16;6077929;23;20026;-68
2023/07/01 10:16:50;;;;;;;5.20;5.00;;;;;;;19.58;100.00;100035.84;6081997;23;20568;-68
2023/07/01 10:19:31;;;;;;;5.40;5.10;;;;;;;19.88;100.00;100053.25;6053900;23;20518;-67
2023/07/01 10:22:16;;;;;;;4.85;4.65;;;;;;;19.69;100.00;100030.28;6083064;23;20044;-69
2023/07/01 10:24:43;;;;;;;5.45;5.13;;;;;;;19.31;100.00;100024.34;6077740;23;20033;-68
2023/07/01 10:27:09;;;;;;;5.40;5.10;;;;;;;19.25;100.00;100007.16;6084119;23;20095;-67
2023/07/01 10:29:39;;;;;;;5.20;5.00;;;;;;;19.77;100.00;100057.00;6082707;23;20018;-67
2023/07/01 10:32:12;;;;;;;5.22;4.97;;;;;;;19.75;100.00;100052.84;6073119;23;20029;-66
2023/07/01 10:34:53;;;;;;;5.47;5.07;;;;;;;19.80;100.00;100058.50;6057266;23;20063;-66
2023/07/01 10:37:25;;;;;;;5.03;4.82;;;;;;;19.87;100.00;100057.75;6082571;23;20041;-66
2023/07/01 10:39:57;;;;;;;5.07;4.88;;;;;;;19.92;100.00;100051.94;6077328;23;20409;-68
2023/07/01 10:42:31;;;;;;;5.20;5.00;;;;;;;19.95;100.00;100048.16;6082339;23;20326;-67
2023/07/01 10:45:10;;;;;;;5.28;5.07;;;;;;;19.83;100.00;100042.25;6053273;23;20027;-68
2023/07/01 10:47:44;;;;;;;5.47;5.28;;;;;;;19.69;100.00;100040.94;6082745;23;20758;-66
2023/07/01 10:50:14;;;;;;;5.30;5.10;;;;;;;19.62;100.00;100054.03;6057601;23;20042;-67
2023/07/01 10:52:56;;;;;;;5.20;5.00;;;;;;;19.46;100.00;100059.22;6083678;23;20206;-66
2023/07/01 10:55:40;;;;;;;5.20;5.00;;;;;;;19.49;100.00;100062.41;6054700;23;20042;-67
2023/07/01 10:58:33;;;;;;;5.10;4.90;;;;;;;19.45;100.00;100062.88;6080811;23;20022;-68
2023/07/01 11:00:59;;;;;;;5.00;4.80;;;;;;;19.08;100.00;100027.47;6080533;23;20029;-67
2023/07/01 11:03:35;;;;;;;5.10;4.90;;;;;;;19.24;100.00;100081.78;6082043;23;20037;-67
2023/07/01 11:06:07;;;;;;;5.20;5.00;;;;;;;18.95;100.00;100015.53;6064915;23;20079;-67
2023/07/01 11:08:42;;;;;;;5.30;5.10;;;;;;;18.75;100.00;99997.00;6084005;23;20034;-68
2023/07/01 11:11:09;;;;;;;5.20;5.00;;;;;;;19.05;100.00;100034.91;6054228;23;20621;-68
2023/07/01 11:13:36;;;;;;;5.30;5.10;;;;;;;19.19;100.00;100066.28;6078988;23;20022;-68
2023/07/01 11:16:08;;;;;;;5.18;4.97;;;;;;;19.28;100.00;100067.19;6087966;23;20112;-68
2023/07/01 11:18:49;;;;;;;5.23;5.03;;;;;;;19.25;100.00;100065.69;6082784;23;20040;-67
2023/07/01 11:21:24;;;;;;;5.20;5.00;;;;;;;19.22;100.00;100057.16;6086925;23;20309;-67
2023/07/01 11:24:11;;;;;;;5.40;5.20;;;;;;;18.93;100.00;100018.34;6082522;23;20552;-67
2023/07/01 11:26:39;;;;;;;5.38;5.18;;;;;;;19.27;100.00;100054.91;6083401;23;20057;-66
2023/07/01 11:29:17;;;;;;;5.75;5.35;;;;;;;18.91;100.00;100007.00;6083523;23;20550;-67
2023/07/01 11:31:44;;;;;;;5.30;5.10;;;;;;;19.39;100.00;100059.00;6078072;23;20032;-66